sensor_id;sensor_type;location;lat;lon;timestamp;P1;durP1;ratioP1;P2;durP2;ratioP2
21941;SDS011;11135;54.192;15.670;2023-08-17T00:01:37;3.47;;;1.83;;
21941;SDS011;11135;54.192;15.670;2023-08-17T00:04:51;6.55;;;2.28;;
21941;SDS011;11135;54.192;15.670;2023-08-17T00:07:59;5.70;;;2.30;;
21941;SDS011;11135;54.192;15.670;2023-08-17T00:11:22;4.90;;;2.20;;
21941;SDS011;11135;54.192;15.670;2023-08-17T00:14:32;7.72;;;2.75;;
21941;SDS011;11135;54.192;15.670;2023-08-17T00:17:38;5.15;;;2.60;;
21941;SDS011;11135;54.192;15.670;2023-08-17T00:20:54;5.80;;;2.65;;
21941;SDS011;11135;54.192;15.670;2023-08-17T00:24:07;4.90;;;2.15;;
21941;SDS011;11135;54.192;15.670;2023-08-17T00:30:28;7.22;;;2.80;;
21941;SDS011;11135;54.192;15.670;2023-08-17T00:33:44;6.63;;;2.42;;
21941;SDS011;11135;54.192;15.670;2023-08-17T00:37:06;8.07;;;2.80;;
21941;SDS011;11135;54.192;15.670;2023-08-17T00:40:17;8.15;;;3.38;;
21941;SDS011;11135;54.192;15.670;2023-08-17T00:43:29;6.80;;;2.17;;
21941;SDS011;11135;54.192;15.670;2023-08-17T00:46:36;5.93;;;2.25;;
21941;SDS011;11135;54.192;15.670;2023-08-17T00:49:43;8.55;;;3.30;;
21941;SDS011;11135;54.192;15.670;2023-08-17T00:52:57;6.25;;;2.70;;
21941;SDS011;11135;54.192;15.670;2023-08-17T00:56:02;8.40;;;2.85;;
21941;SDS011;11135;54.192;15.670;2023-08-17T00:59:08;4.38;;;2.63;;
21941;SDS011;11135;54.192;15.670;2023-08-17T01:02:15;9.55;;;2.92;;
21941;SDS011;11135;54.192;15.670;2023-08-17T01:05:22;5.95;;;2.55;;
21941;SDS011;11135;54.192;15.670;2023-08-17T01:08:31;7.03;;;2.10;;
21941;SDS011;11135;54.192;15.670;2023-08-17T01:11:38;5.60;;;2.55;;
21941;SDS011;11135;54.192;15.670;2023-08-17T01:14:48;7.90;;;2.28;;
21941;SDS011;11135;54.192;15.670;2023-08-17T01:18:07;5.18;;;2.83;;
21941;SDS011;11135;54.192;15.670;2023-08-17T01:21:24;5.43;;;2.58;;
21941;SDS011;11135;54.192;15.670;2023-08-17T01:24:38;5.68;;;2.92;;
21941;SDS011;11135;54.192;15.670;2023-08-17T01:27:44;5.55;;;2.50;;
21941;SDS011;11135;54.192;15.670;2023-08-17T01:30:52;8.20;;;2.60;;
21941;SDS011;11135;54.192;15.670;2023-08-17T01:34:02;6.15;;;2.47;;
21941;SDS011;11135;54.192;15.670;2023-08-17T01:37:11;8.00;;;3.10;;
21941;SDS011;11135;54.192;15.670;2023-08-17T01:40:21;7.22;;;2.72;;
21941;SDS011;11135;54.192;15.670;2023-08-17T01:46:35;4.63;;;2.45;;
21941;SDS011;11135;54.192;15.670;2023-08-17T01:49:41;6.00;;;2.60;;
21941;SDS011;11135;54.192;15.670;2023-08-17T01:52:48;6.47;;;2.58;;
21941;SDS011;11135;54.192;15.670;2023-08-17T01:56:00;8.38;;;3.42;;
21941;SDS011;11135;54.192;15.670;2023-08-17T01:59:05;6.30;;;2.83;;
21941;SDS011;11135;54.192;15.670;2023-08-17T02:02:11;4.53;;;2.53;;
21941;SDS011;11135;54.192;15.670;2023-08-17T02:05:18;6.32;;;2.67;;
21941;SDS011;11135;54.192;15.670;2023-08-17T02:08:23;5.72;;;2.97;;
21941;SDS011;11135;54.192;15.670;2023-08-17T02:11:33;5.03;;;2.58;;
21941;SDS011;11135;54.192;15.670;2023-08-17T02:14:40;2.92;;;1.88;;
21941;SDS011;11135;54.192;15.670;2023-08-17T02:17:45;6.45;;;3.05;;
21941;SDS011;11135;54.192;15.670;2023-08-17T02:20:51;7.78;;;3.90;;
21941;SDS011;11135;54.192;15.670;2023-08-17T02:23:56;4.18;;;2.90;;
21941;SDS011;11135;54.192;15.670;2023-08-17T02:27:05;6.95;;;3.00;;
21941;SDS011;11135;54.192;15.670;2023-08-17T02:30:11;8.57;;;2.80;;
21941;SDS011;11135;54.192;15.670;2023-08-17T02:33:24;5.32;;;2.80;;
21941;SDS011;11135;54.192;15.670;2023-08-17T02:36:30;6.97;;;2.60;;
21941;SDS011;11135;54.192;15.670;2023-08-17T02:39:37;5.22;;;2.70;;
21941;SDS011;11135;54.192;15.670;2023-08-17T02:42:59;6.28;;;2.80;;
21941;SDS011;11135;54.192;15.670;2023-08-17T02:46:04;6.72;;;2.60;;
21941;SDS011;11135;54.192;15.670;2023-08-17T02:49:12;5.32;;;2.83;;
21941;SDS011;11135;54.192;15.670;2023-08-17T02:52:19;5.55;;;2.97;;
21941;SDS011;11135;54.192;15.670;2023-08-17T02:55:24;6.53;;;3.20;;
21941;SDS011;11135;54.192;15.670;2023-08-17T02:58:33;6.88;;;3.10;;
21941;SDS011;11135;54.192;15.670;2023-08-17T03:01:41;10.82;;;3.10;;
21941;SDS011;11135;54.192;15.670;2023-08-17T03:04:48;7.72;;;3.80;;
21941;SDS011;11135;54.192;15.670;2023-08-17T03:07:53;11.25;;;4.32;;
21941;SDS011;11135;54.192;15.670;2023-08-17T03:10:59;9.15;;;4.18;;
21941;SDS011;11135;54.192;15.670;2023-08-17T03:14:07;12.35;;;5.35;;
21941;SDS011;11135;54.192;15.670;2023-08-17T03:17:15;10.85;;;4.68;;
21941;SDS011;11135;54.192;15.670;2023-08-17T03:20:21;7.50;;;5.68;;
21941;SDS011;11135;54.192;15.670;2023-08-17T03:23:26;11.35;;;5.18;;
21941;SDS011;11135;54.192;15.670;2023-08-17T03:26:33;8.32;;;4.05;;
21941;SDS011;11135;54.192;15.670;2023-08-17T03:29:41;8.88;;;3.90;;
21941;SDS011;11135;54.192;15.670;2023-08-17T03:32:48;7.57;;;4.20;;
21941;SDS011;11135;54.192;15.670;2023-08-17T03:35:56;8.18;;;3.65;;
21941;SDS011;11135;54.192;15.670;2023-08-17T03:39:05;7.88;;;3.78;;
21941;SDS011;11135;54.192;15.670;2023-08-17T03:42:13;6.32;;;3.45;;
21941;SDS011;11135;54.192;15.670;2023-08-17T03:45:21;7.70;;;4.03;;
21941;SDS011;11135;54.192;15.670;2023-08-17T03:48:26;7.35;;;3.40;;
21941;SDS011;11135;54.192;15.670;2023-08-17T03:51:35;9.57;;;4.03;;
21941;SDS011;11135;54.192;15.670;2023-08-17T03:54:45;6.85;;;3.05;;
21941;SDS011;11135;54.192;15.670;2023-08-17T03:57:51;8.32;;;3.53;;
21941;SDS011;11135;54.192;15.670;2023-08-17T04:01:00;7.75;;;3.35;;
21941;SDS011;11135;54.192;15.670;2023-08-17T04:04:08;6.43;;;3.35;;
21941;SDS011;11135;54.192;15.670;2023-08-17T04:07:22;8.45;;;2.95;;
21941;SDS011;11135;54.192;15.670;2023-08-17T04:10:28;6.70;;;2.90;;
21941;SDS011;11135;54.192;15.670;2023-08-17T04:13:33;7.35;;;3.22;;
21941;SDS011;11135;54.192;15.670;2023-08-17T04:16:42;5.72;;;3.35;;
21941;SDS011;11135;54.192;15.670;2023-08-17T04:19:48;7.18;;;3.22;;
21941;SDS011;11135;54.192;15.670;2023-08-17T04:22:53;7.43;;;3.20;;
21941;SDS011;11135;54.192;15.670;2023-08-17T04:25:59;7.60;;;2.95;;
21941;SDS011;11135;54.192;15.670;2023-08-17T04:29:04;6.65;;;2.92;;
21941;SDS011;11135;54.192;15.670;2023-08-17T04:32:16;5.90;;;3.15;;
21941;SDS011;11135;54.192;15.670;2023-08-17T04:35:24;7.82;;;2.92;;
21941;SDS011;11135;54.192;15.670;2023-08-17T04:38:30;6.90;;;2.53;;
21941;SDS011;11135;54.192;15.670;2023-08-17T04:41:44;4.85;;;2.70;;
21941;SDS011;11135;54.192;15.670;2023-08-17T04:44:54;7.75;;;3.42;;
21941;SDS011;11135;54.192;15.670;2023-08-17T04:48:02;7.38;;;3.17;;
21941;SDS011;11135;54.192;15.670;2023-08-17T04:51:09;8.00;;;2.63;;
21941;SDS011;11135;54.192;15.670;2023-08-17T04:54:17;3.88;;;2.50;;
21941;SDS011;11135;54.192;15.670;2023-08-17T04:57:23;8.02;;;2.30;;
21941;SDS011;11135;54.192;15.670;2023-08-17T05:00:29;8.30;;;2.40;;
21941;SDS011;11135;54.192;15.670;2023-08-17T05:03:39;4.95;;;2.30;;
21941;SDS011;11135;54.192;15.670;2023-08-17T05:06:46;8.98;;;3.08;;
21941;SDS011;11135;54.192;15.670;2023-08-17T05:09:52;5.85;;;3.38;;
21941;SDS011;11135;54.192;15.670;2023-08-17T05:12:57;5.55;;;3.08;;
21941;SDS011;11135;54.192;15.670;2023-08-17T05:16:04;7.15;;;3.22;;
21941;SDS011;11135;54.192;15.670;2023-08-17T05:19:12;7.53;;;2.90;;
21941;SDS011;11135;54.192;15.670;2023-08-17T05:22:17;8.18;;;4.25;;
21941;SDS011;11135;54.192;15.670;2023-08-17T05:25:23;5.93;;;2.85;;
21941;SDS011;11135;54.192;15.670;2023-08-17T05:28:32;7.00;;;2.88;;
21941;SDS011;11135;54.192;15.670;2023-08-17T05:31:37;6.35;;;2.60;;
21941;SDS011;11135;54.192;15.670;2023-08-17T05:34:46;8.38;;;2.95;;
21941;SDS011;11135;54.192;15.670;2023-08-17T05:37:51;8.70;;;2.72;;
21941;SDS011;11135;54.192;15.670;2023-08-17T05:40:57;7.25;;;2.45;;
21941;SDS011;11135;54.192;15.670;2023-08-17T05:44:04;8.27;;;3.10;;
21941;SDS011;11135;54.192;15.670;2023-08-17T05:47:10;5.05;;;2.40;;
21941;SDS011;11135;54.192;15.670;2023-08-17T05:50:21;5.50;;;2.80;;
21941;SDS011;11135;54.192;15.670;2023-08-17T05:53:36;5.45;;;2.40;;
21941;SDS011;11135;54.192;15.670;2023-08-17T05:56:41;6.95;;;2.20;;
21941;SDS011;11135;54.192;15.670;2023-08-17T05:59:51;5.10;;;2.55;;
21941;SDS011;11135;54.192;15.670;2023-08-17T06:02:56;7.10;;;3.13;;
21941;SDS011;11135;54.192;15.670;2023-08-17T06:06:06;4.57;;;2.28;;
21941;SDS011;11135;54.192;15.670;2023-08-17T06:09:12;5.00;;;2.97;;
21941;SDS011;11135;54.192;15.670;2023-08-17T06:12:20;6.55;;;2.45;;
21941;SDS011;11135;54.192;15.670;2023-08-17T06:15:27;7.50;;;2.53;;
21941;SDS011;11135;54.192;15.670;2023-08-17T06:18:34;5.15;;;2.15;;
21941;SDS011;11135;54.192;15.670;2023-08-17T06:21:43;4.30;;;2.58;;
21941;SDS011;11135;54.192;15.670;2023-08-17T06:24:49;4.50;;;2.20;;
21941;SDS011;11135;54.192;15.670;2023-08-17T06:27:59;4.80;;;2.15;;
21941;SDS011;11135;54.192;15.670;2023-08-17T06:31:04;5.65;;;2.47;;
21941;SDS011;11135;54.192;15.670;2023-08-17T06:34:10;9.90;;;3.13;;
21941;SDS011;11135;54.192;15.670;2023-08-17T06:37:20;4.47;;;1.92;;
21941;SDS011;11135;54.192;15.670;2023-08-17T06:40:27;7.05;;;1.90;;
21941;SDS011;11135;54.192;15.670;2023-08-17T06:43:33;6.18;;;2.08;;
21941;SDS011;11135;54.192;15.670;2023-08-17T06:46:40;3.17;;;1.88;;
21941;SDS011;11135;54.192;15.670;2023-08-17T06:49:48;4.68;;;1.77;;
21941;SDS011;11135;54.192;15.670;2023-08-17T06:52:56;3.88;;;2.00;;
21941;SDS011;11135;54.192;15.670;2023-08-17T06:56:03;4.10;;;2.00;;
21941;SDS011;11135;54.192;15.670;2023-08-17T06:59:10;5.18;;;2.00;;
21941;SDS011;11135;54.192;15.670;2023-08-17T07:02:15;4.07;;;1.80;;
21941;SDS011;11135;54.192;15.670;2023-08-17T07:05:21;4.68;;;2.20;;
21941;SDS011;11135;54.192;15.670;2023-08-17T07:08:31;6.20;;;2.38;;
21941;SDS011;11135;54.192;15.670;2023-08-17T07:11:37;8.00;;;2.55;;
21941;SDS011;11135;54.192;15.670;2023-08-17T07:14:43;7.03;;;2.63;;
21941;SDS011;11135;54.192;15.670;2023-08-17T07:17:48;6.10;;;2.30;;
21941;SDS011;11135;54.192;15.670;2023-08-17T07:20:54;6.90;;;2.13;;
21941;SDS011;11135;54.192;15.670;2023-08-17T07:24:13;5.45;;;2.08;;
21941;SDS011;11135;54.192;15.670;2023-08-17T07:27:20;7.78;;;2.53;;
21941;SDS011;11135;54.192;15.670;2023-08-17T07:30:25;5.97;;;2.10;;
21941;SDS011;11135;54.192;15.670;2023-08-17T07:33:32;5.65;;;2.13;;
21941;SDS011;11135;54.192;15.670;2023-08-17T07:36:40;4.22;;;2.03;;
21941;SDS011;11135;54.192;15.670;2023-08-17T07:39:49;5.15;;;1.80;;
21941;SDS011;11135;54.192;15.670;2023-08-17T07:42:55;3.75;;;1.90;;
21941;SDS011;11135;54.192;15.670;2023-08-17T07:46:02;3.50;;;1.63;;
21941;SDS011;11135;54.192;15.670;2023-08-17T07:49:07;6.47;;;1.80;;
21941;SDS011;11135;54.192;15.670;2023-08-17T07:52:31;8.75;;;2.47;;
21941;SDS011;11135;54.192;15.670;2023-08-17T07:55:41;5.07;;;2.10;;
21941;SDS011;11135;54.192;15.670;2023-08-17T07:58:46;4.60;;;2.22;;
21941;SDS011;11135;54.192;15.670;2023-08-17T08:01:54;4.68;;;2.25;;
21941;SDS011;11135;54.192;15.670;2023-08-17T08:05:02;4.68;;;2.20;;
21941;SDS011;11135;54.192;15.670;2023-08-17T08:08:08;6.38;;;2.95;;
21941;SDS011;11135;54.192;15.670;2023-08-17T08:11:16;8.02;;;2.65;;
21941;SDS011;11135;54.192;15.670;2023-08-17T08:14:24;4.30;;;2.20;;
21941;SDS011;11135;54.192;15.670;2023-08-17T08:17:30;5.32;;;2.55;;
21941;SDS011;11135;54.192;15.670;2023-08-17T08:20:35;4.80;;;2.50;;
21941;SDS011;11135;54.192;15.670;2023-08-17T08:23:46;5.45;;;2.20;;
21941;SDS011;11135;54.192;15.670;2023-08-17T08:26:54;6.82;;;2.25;;
21941;SDS011;11135;54.192;15.670;2023-08-17T08:30:03;3.85;;;2.00;;
21941;SDS011;11135;54.192;15.670;2023-08-17T08:33:09;3.13;;;2.08;;
21941;SDS011;11135;54.192;15.670;2023-08-17T08:36:15;4.20;;;1.90;;
21941;SDS011;11135;54.192;15.670;2023-08-17T08:39:20;4.40;;;1.88;;
21941;SDS011;11135;54.192;15.670;2023-08-17T08:42:32;6.43;;;2.13;;
21941;SDS011;11135;54.192;15.670;2023-08-17T08:45:39;4.50;;;1.60;;
21941;SDS011;11135;54.192;15.670;2023-08-17T08:48:47;5.82;;;1.85;;
21941;SDS011;11135;54.192;15.670;2023-08-17T08:51:54;3.95;;;1.70;;
21941;SDS011;11135;54.192;15.670;2023-08-17T08:55:05;3.13;;;2.00;;
21941;SDS011;11135;54.192;15.670;2023-08-17T08:58:17;2.83;;;1.40;;
21941;SDS011;11135;54.192;15.670;2023-08-17T09:01:25;3.47;;;1.73;;
21941;SDS011;11135;54.192;15.670;2023-08-17T09:04:31;2.92;;;1.40;;
21941;SDS011;11135;54.192;15.670;2023-08-17T09:07:37;2.20;;;1.52;;
21941;SDS011;11135;54.192;15.670;2023-08-17T09:10:43;3.28;;;1.27;;
21941;SDS011;11135;54.192;15.670;2023-08-17T09:13:52;3.35;;;1.30;;
21941;SDS011;11135;54.192;15.670;2023-08-17T09:17:06;3.30;;;1.50;;
21941;SDS011;11135;54.192;15.670;2023-08-17T09:20:17;4.35;;;1.63;;
21941;SDS011;11135;54.192;15.670;2023-08-17T09:23:38;3.15;;;1.75;;
21941;SDS011;11135;54.192;15.670;2023-08-17T09:26:45;2.97;;;1.52;;
21941;SDS011;11135;54.192;15.670;2023-08-17T09:29:54;3.30;;;1.20;;
21941;SDS011;11135;54.192;15.670;2023-08-17T09:33:09;2.75;;;1.20;;
21941;SDS011;11135;54.192;15.670;2023-08-17T09:36:14;4.65;;;1.45;;
21941;SDS011;11135;54.192;15.670;2023-08-17T09:39:20;1.92;;;1.35;;
21941;SDS011;11135;54.192;15.670;2023-08-17T09:42:25;3.00;;;1.20;;
21941;SDS011;11135;54.192;15.670;2023-08-17T09:45:35;3.90;;;1.50;;
21941;SDS011;11135;54.192;15.670;2023-08-17T09:48:43;2.67;;;1.20;;
21941;SDS011;11135;54.192;15.670;2023-08-17T09:51:51;2.30;;;1.30;;
21941;SDS011;11135;54.192;15.670;2023-08-17T09:54:57;2.13;;;1.45;;
21941;SDS011;11135;54.192;15.670;2023-08-17T09:58:10;2.00;;;1.13;;
21941;SDS011;11135;54.192;15.670;2023-08-17T10:01:20;5.07;;;1.17;;
21941;SDS011;11135;54.192;15.670;2023-08-17T10:04:28;1.70;;;1.20;;
21941;SDS011;11135;54.192;15.670;2023-08-17T10:07:36;3.55;;;1.40;;
21941;SDS011;11135;54.192;15.670;2023-08-17T10:10:44;3.35;;;1.20;;
21941;SDS011;11135;54.192;15.670;2023-08-17T10:13:59;3.63;;;1.73;;
21941;SDS011;11135;54.192;15.670;2023-08-17T10:17:17;4.22;;;1.70;;
21941;SDS011;11135;54.192;15.670;2023-08-17T10:20:25;3.65;;;1.40;;
21941;SDS011;11135;54.192;15.670;2023-08-17T10:23:38;2.20;;;1.17;;
21941;SDS011;11135;54.192;15.670;2023-08-17T10:26:44;2.58;;;1.00;;
21941;SDS011;11135;54.192;15.670;2023-08-17T10:29:55;3.17;;;1.17;;
21941;SDS011;11135;54.192;15.670;2023-08-17T10:33:07;3.92;;;1.27;;
21941;SDS011;11135;54.192;15.670;2023-08-17T10:36:15;2.78;;;1.20;;
21941;SDS011;11135;54.192;15.670;2023-08-17T10:39:22;4.28;;;1.40;;
21941;SDS011;11135;54.192;15.670;2023-08-17T10:42:31;4.40;;;1.25;;
21941;SDS011;11135;54.192;15.670;2023-08-17T10:45:39;2.78;;;1.23;;
21941;SDS011;11135;54.192;15.670;2023-08-17T10:48:56;4.00;;;1.20;;
21941;SDS011;11135;54.192;15.670;2023-08-17T10:52:07;2.28;;;1.20;;
21941;SDS011;11135;54.192;15.670;2023-08-17T10:55:13;2.95;;;1.10;;
21941;SDS011;11135;54.192;15.670;2023-08-17T10:58:31;3.42;;;1.40;;
21941;SDS011;11135;54.192;15.670;2023-08-17T11:01:40;2.90;;;1.20;;
21941;SDS011;11135;54.192;15.670;2023-08-17T11:04:53;3.10;;;1.15;;
21941;SDS011;11135;54.192;15.670;2023-08-17T11:08:01;4.93;;;1.33;;
21941;SDS011;11135;54.192;15.670;2023-08-17T11:11:12;4.63;;;1.40;;
21941;SDS011;11135;54.192;15.670;2023-08-17T11:14:19;2.03;;;1.10;;
21941;SDS011;11135;54.192;15.670;2023-08-17T11:17:25;2.30;;;1.50;;
21941;SDS011;11135;54.192;15.670;2023-08-17T11:20:35;3.22;;;1.20;;
21941;SDS011;11135;54.192;15.670;2023-08-17T11:23:41;6.57;;;1.45;;
21941;SDS011;11135;54.192;15.670;2023-08-17T11:26:48;2.55;;;1.17;;
21941;SDS011;11135;54.192;15.670;2023-08-17T11:29:55;4.50;;;1.48;;
21941;SDS011;11135;54.192;15.670;2023-08-17T11:33:07;2.20;;;1.10;;
21941;SDS011;11135;54.192;15.670;2023-08-17T11:36:16;2.70;;;1.17;;
21941;SDS011;11135;54.192;15.670;2023-08-17T11:39:24;3.72;;;1.30;;
21941;SDS011;11135;54.192;15.670;2023-08-17T11:42:29;1.48;;;0.88;;
21941;SDS011;11135;54.192;15.670;2023-08-17T11:45:39;3.65;;;1.20;;
21941;SDS011;11135;54.192;15.670;2023-08-17T11:48:45;2.53;;;1.10;;
21941;SDS011;11135;54.192;15.670;2023-08-17T11:51:55;2.92;;;1.00;;
21941;SDS011;11135;54.192;15.670;2023-08-17T11:55:03;3.58;;;1.00;;
21941;SDS011;11135;54.192;15.670;2023-08-17T11:58:12;2.35;;;1.05;;
21941;SDS011;11135;54.192;15.670;2023-08-17T12:01:17;2.60;;;1.00;;
21941;SDS011;11135;54.192;15.670;2023-08-17T12:04:32;1.85;;;1.08;;
21941;SDS011;11135;54.192;15.670;2023-08-17T12:07:43;2.88;;;1.20;;
21941;SDS011;11135;54.192;15.670;2023-08-17T12:10:50;2.63;;;1.10;;
21941;SDS011;11135;54.192;15.670;2023-08-17T12:13:57;2.13;;;1.00;;
21941;SDS011;11135;54.192;15.670;2023-08-17T12:17:03;6.13;;;1.45;;
21941;SDS011;11135;54.192;15.670;2023-08-17T12:20:14;1.88;;;1.00;;
21941;SDS011;11135;54.192;15.670;2023-08-17T12:23:25;3.72;;;1.00;;
21941;SDS011;11135;54.192;15.670;2023-08-17T12:26:31;2.15;;;0.85;;
21941;SDS011;11135;54.192;15.670;2023-08-17T12:29:46;3.22;;;1.15;;
21941;SDS011;11135;54.192;15.670;2023-08-17T12:32:54;1.40;;;1.00;;
21941;SDS011;11135;54.192;15.670;2023-08-17T12:36:01;1.60;;;1.00;;
21941;SDS011;11135;54.192;15.670;2023-08-17T12:39:09;2.75;;;1.10;;
21941;SDS011;11135;54.192;15.670;2023-08-17T12:42:18;1.30;;;0.90;;
21941;SDS011;11135;54.192;15.670;2023-08-17T12:45:24;1.73;;;1.05;;
21941;SDS011;11135;54.192;15.670;2023-08-17T12:48:33;2.35;;;1.13;;
21941;SDS011;11135;54.192;15.670;2023-08-17T12:51:39;3.90;;;1.25;;
21941;SDS011;11135;54.192;15.670;2023-08-17T12:54:50;2.75;;;1.15;;
21941;SDS011;11135;54.192;15.670;2023-08-17T12:57:59;3.50;;;1.65;;
21941;SDS011;11135;54.192;15.670;2023-08-17T13:01:06;3.55;;;1.23;;
21941;SDS011;11135;54.192;15.670;2023-08-17T13:04:11;6.68;;;2.20;;
21941;SDS011;11135;54.192;15.670;2023-08-17T13:07:18;2.22;;;1.05;;
21941;SDS011;11135;54.192;15.670;2023-08-17T13:10:26;3.97;;;1.20;;
21941;SDS011;11135;54.192;15.670;2023-08-17T13:13:32;3.50;;;1.30;;
21941;SDS011;11135;54.192;15.670;2023-08-17T13:16:38;6.00;;;1.20;;
21941;SDS011;11135;54.192;15.670;2023-08-17T13:19:43;3.30;;;0.90;;
21941;SDS011;11135;54.192;15.670;2023-08-17T13:22:49;4.32;;;1.15;;
21941;SDS011;11135;54.192;15.670;2023-08-17T13:25:59;2.72;;;1.30;;
21941;SDS011;11135;54.192;15.670;2023-08-17T13:29:07;2.93;;;1.20;;
21941;SDS011;11135;54.192;15.670;2023-08-17T13:32:13;2.78;;;1.30;;
21941;SDS011;11135;54.192;15.670;2023-08-17T13:35:19;4.03;;;1.50;;
21941;SDS011;11135;54.192;15.670;2023-08-17T13:38:26;3.72;;;1.23;;
21941;SDS011;11135;54.192;15.670;2023-08-17T13:41:34;3.33;;;1.20;;
21941;SDS011;11135;54.192;15.670;2023-08-17T13:44:42;2.88;;;1.17;;
21941;SDS011;11135;54.192;15.670;2023-08-17T13:47:47;3.13;;;1.30;;
21941;SDS011;11135;54.192;15.670;2023-08-17T13:50:56;3.42;;;1.45;;
21941;SDS011;11135;54.192;15.670;2023-08-17T13:54:02;3.13;;;1.65;;
21941;SDS011;11135;54.192;15.670;2023-08-17T13:57:13;3.75;;;1.48;;
21941;SDS011;11135;54.192;15.670;2023-08-17T14:00:18;2.92;;;1.08;;
21941;SDS011;11135;54.192;15.670;2023-08-17T14:03:25;4.78;;;1.42;;
21941;SDS011;11135;54.192;15.670;2023-08-17T14:06:32;2.50;;;1.10;;
21941;SDS011;11135;54.192;15.670;2023-08-17T14:09:38;3.75;;;1.20;;
21941;SDS011;11135;54.192;15.670;2023-08-17T14:13:10;5.72;;;1.52;;
21941;SDS011;11135;54.192;15.670;2023-08-17T14:16:16;6.63;;;1.33;;
21941;SDS011;11135;54.192;15.670;2023-08-17T14:19:24;1.67;;;1.35;;
21941;SDS011;11135;54.192;15.670;2023-08-17T14:22:31;4.63;;;1.30;;
21941;SDS011;11135;54.192;15.670;2023-08-17T14:25:39;3.75;;;1.30;;
21941;SDS011;11135;54.192;15.670;2023-08-17T14:28:50;2.47;;;1.20;;
21941;SDS011;11135;54.192;15.670;2023-08-17T14:31:59;3.05;;;1.35;;
21941;SDS011;11135;54.192;15.670;2023-08-17T14:35:07;1.20;;;1.00;;
21941;SDS011;11135;54.192;15.670;2023-08-17T14:38:14;4.38;;;1.50;;
21941;SDS011;11135;54.192;15.670;2023-08-17T14:41:20;2.08;;;1.15;;
21941;SDS011;11135;54.192;15.670;2023-08-17T14:44:36;2.85;;;1.40;;
21941;SDS011;11135;54.192;15.670;2023-08-17T14:47:43;3.15;;;1.35;;
21941;SDS011;11135;54.192;15.670;2023-08-17T14:50:58;3.53;;;1.17;;
21941;SDS011;11135;54.192;15.670;2023-08-17T14:54:06;3.20;;;1.40;;
21941;SDS011;11135;54.192;15.670;2023-08-17T14:57:13;4.90;;;1.45;;
21941;SDS011;11135;54.192;15.670;2023-08-17T15:00:22;4.63;;;1.30;;
21941;SDS011;11135;54.192;15.670;2023-08-17T15:03:27;2.75;;;1.42;;
21941;SDS011;11135;54.192;15.670;2023-08-17T15:06:34;2.85;;;1.27;;
21941;SDS011;11135;54.192;15.670;2023-08-17T15:09:44;4.95;;;1.55;;
21941;SDS011;11135;54.192;15.670;2023-08-17T15:12:51;3.80;;;1.42;;
21941;SDS011;11135;54.192;15.670;2023-08-17T15:16:00;8.43;;;2.00;;
21941;SDS011;11135;54.192;15.670;2023-08-17T15:19:07;3.17;;;1.48;;
21941;SDS011;11135;54.192;15.670;2023-08-17T15:22:12;4.38;;;1.30;;
21941;SDS011;11135;54.192;15.670;2023-08-17T15:25:18;2.72;;;1.40;;
21941;SDS011;11135;54.192;15.670;2023-08-17T15:28:24;2.15;;;1.45;;
21941;SDS011;11135;54.192;15.670;2023-08-17T15:31:33;4.50;;;1.60;;
21941;SDS011;11135;54.192;15.670;2023-08-17T15:34:39;3.28;;;1.63;;
21941;SDS011;11135;54.192;15.670;2023-08-17T15:37:53;5.43;;;1.70;;
21941;SDS011;11135;54.192;15.670;2023-08-17T15:40:58;4.13;;;1.52;;
21941;SDS011;11135;54.192;15.670;2023-08-17T15:44:08;4.63;;;1.40;;
21941;SDS011;11135;54.192;15.670;2023-08-17T15:47:16;5.63;;;2.13;;
21941;SDS011;11135;54.192;15.670;2023-08-17T15:50:23;4.53;;;1.65;;
21941;SDS011;11135;54.192;15.670;2023-08-17T15:53:33;3.55;;;1.60;;
21941;SDS011;11135;54.192;15.670;2023-08-17T15:56:42;4.30;;;2.00;;
21941;SDS011;11135;54.192;15.670;2023-08-17T15:59:52;8.82;;;1.80;;
21941;SDS011;11135;54.192;15.670;2023-08-17T16:03:03;2.92;;;1.65;;
21941;SDS011;11135;54.192;15.670;2023-08-17T16:06:15;4.65;;;2.10;;
21941;SDS011;11135;54.192;15.670;2023-08-17T16:09:20;4.55;;;1.70;;
21941;SDS011;11135;54.192;15.670;2023-08-17T16:12:34;6.45;;;2.00;;
21941;SDS011;11135;54.192;15.670;2023-08-17T16:15:44;4.88;;;1.75;;
21941;SDS011;11135;54.192;15.670;2023-08-17T16:18:57;3.72;;;1.80;;
21941;SDS011;11135;54.192;15.670;2023-08-17T16:22:06;4.63;;;2.05;;
21941;SDS011;11135;54.192;15.670;2023-08-17T16:25:11;4.43;;;2.40;;
21941;SDS011;11135;54.192;15.670;2023-08-17T16:28:17;6.55;;;2.33;;
21941;SDS011;11135;54.192;15.670;2023-08-17T16:31:25;3.85;;;1.92;;
21941;SDS011;11135;54.192;15.670;2023-08-17T16:34:34;5.47;;;2.20;;
21941;SDS011;11135;54.192;15.670;2023-08-17T16:37:42;5.22;;;2.20;;
21941;SDS011;11135;54.192;15.670;2023-08-17T16:40:52;6.55;;;2.40;;
21941;SDS011;11135;54.192;15.670;2023-08-17T16:43:58;7.07;;;2.33;;
21941;SDS011;11135;54.192;15.670;2023-08-17T16:47:07;3.67;;;2.20;;
21941;SDS011;11135;54.192;15.670;2023-08-17T16:50:16;3.72;;;2.10;;
21941;SDS011;11135;54.192;15.670;2023-08-17T16:53:22;3.80;;;2.30;;
21941;SDS011;11135;54.192;15.670;2023-08-17T16:56:29;3.05;;;1.83;;
21941;SDS011;11135;54.192;15.670;2023-08-17T16:59:35;5.28;;;2.17;;
21941;SDS011;11135;54.192;15.670;2023-08-17T17:02:43;6.47;;;2.30;;
21941;SDS011;11135;54.192;15.670;2023-08-17T17:05:59;6.03;;;2.60;;
21941;SDS011;11135;54.192;15.670;2023-08-17T17:09:07;7.15;;;2.47;;
21941;SDS011;11135;54.192;15.670;2023-08-17T17:12:15;6.75;;;2.65;;
21941;SDS011;11135;54.192;15.670;2023-08-17T17:15:23;5.32;;;2.30;;
21941;SDS011;11135;54.192;15.670;2023-08-17T17:18:30;6.90;;;2.72;;
21941;SDS011;11135;54.192;15.670;2023-08-17T17:21:47;4.75;;;2.38;;
21941;SDS011;11135;54.192;15.670;2023-08-17T17:24:58;5.57;;;2.80;;
21941;SDS011;11135;54.192;15.670;2023-08-17T17:28:09;5.25;;;2.50;;
21941;SDS011;11135;54.192;15.670;2023-08-17T17:31:16;6.28;;;2.50;;
21941;SDS011;11135;54.192;15.670;2023-08-17T17:34:24;5.05;;;2.30;;
21941;SDS011;11135;54.192;15.670;2023-08-17T17:37:40;4.28;;;2.30;;
21941;SDS011;11135;54.192;15.670;2023-08-17T17:40:48;6.75;;;2.80;;
21941;SDS011;11135;54.192;15.670;2023-08-17T17:43:58;9.15;;;2.72;;
21941;SDS011;11135;54.192;15.670;2023-08-17T17:47:07;5.45;;;2.58;;
21941;SDS011;11135;54.192;15.670;2023-08-17T17:50:13;4.65;;;2.40;;
21941;SDS011;11135;54.192;15.670;2023-08-17T17:53:21;5.28;;;2.78;;
21941;SDS011;11135;54.192;15.670;2023-08-17T17:56:38;10.27;;;3.10;;
21941;SDS011;11135;54.192;15.670;2023-08-17T17:59:47;4.72;;;2.60;;
21941;SDS011;11135;54.192;15.670;2023-08-17T18:02:54;6.85;;;2.90;;
21941;SDS011;11135;54.192;15.670;2023-08-17T18:05:59;6.30;;;2.90;;
21941;SDS011;11135;54.192;15.670;2023-08-17T18:09:12;4.22;;;2.70;;
21941;SDS011;11135;54.192;15.670;2023-08-17T18:12:18;9.32;;;3.00;;
21941;SDS011;11135;54.192;15.670;2023-08-17T18:15:27;7.05;;;3.38;;
21941;SDS011;11135;54.192;15.670;2023-08-17T18:18:35;6.95;;;2.88;;
21941;SDS011;11135;54.192;15.670;2023-08-17T18:21:41;6.70;;;2.85;;
21941;SDS011;11135;54.192;15.670;2023-08-17T18:24:52;6.60;;;3.20;;
21941;SDS011;11135;54.192;15.670;2023-08-17T18:27:58;8.43;;;3.40;;
21941;SDS011;11135;54.192;15.670;2023-08-17T18:31:07;6.30;;;2.88;;
21941;SDS011;11135;54.192;15.670;2023-08-17T18:34:19;5.15;;;2.67;;
21941;SDS011;11135;54.192;15.670;2023-08-17T18:37:25;8.13;;;4.00;;
21941;SDS011;11135;54.192;15.670;2023-08-17T18:40:37;7.13;;;3.00;;
21941;SDS011;11135;54.192;15.670;2023-08-17T18:43:43;6.53;;;3.20;;